Strona główna
METAR-TAF:

METAR-TAF

Lotnisko :

Port lotniczy Paryż-Orly

Paryż-Orly, Francja

Szerokość geograficzna: 48-44N, Długość geograficzna: 002-24E, wysokość: 89 m

Aktualna obserwacja pogody

Raport powstał 33 minut temu, godzina 06:00 UTC
Wiatr 4 kt od zachodnio-północny zachód, zmienny między zachód i północny zachód
Temperatura 18°C
Wilgotność 77%
Ciśnienie 1021 hPa
Widzialność 10 km lub więcej
Mało chmury na wysokości 4600 ft
Przerywane chmury na wysokości 30000 ft

METAR: LFPO 210600Z 30004KT 260V320 9999 FEW046 BKN300 18/14 Q1021 NOSIG

czas: 08:33 (06:33 UTC)

Prognoza

Raport powstał 1 godzina i 33 minut temu, godzina 05:00 UTC
Prognoza ważna od 21 godzina 06 UTC do 22 godzina 12 UTC
Wiatr 6 kt od północny zachód
Widzialność 10 km lub więcej
Brak chmur poniżej 1500 m i brak chmur cumulonimbus

TAF: LFPO 210500Z 2106/2212 31006KT CAVOK

Obserwacja i prognoza pogody dla ponad 4000 lotnisk (raport METAR i TAF).

Dostępne stacje oznaczono żółtymi i czerwonymi punktami na mapie.

Najedź kursorem aby zobaczyć nazwę stacji.

Kliknij aby zobaczyć obserwacje i prognozy pogody.

Aby zmienić mapę: kliknij na zielony przycisk z czarnym krzyżykiem, aby powiększyć; na zielony przycisk z myślnikiem, aby pomniejszyć; na zielone strzałki, aby przejść do map sąsiednich.


METAR-TAF: